»·PEaware :: N888GY KSDL-KSNA

N888GY :: KSDL-KSNA

FLIGHT INFORMATION

Flight Status: Arrived
Operator: Privately registered:
United States
More flights under this callsign
Pilot: Anonymous 14085 (14085)
Aircraft: CANADAIR CL-600 CRJ-200
(CRJ2)
More flights by this aircraft type
Origin: KSDL Scottsdale
United States
Destination: KSNA John Wayne-Orange Co
United States
More flights between these airports :: More routes between these airports
Route: + / BLH075054 PSP KAYOH7
File this flight plan on PilotEdge
Remarks:
Altitude:
(Current/Filed)
36,000ft
Speed:
(Current/Filed)
405kts
Departed: 10-Aug-17 08:06 PM
Arrived: 10-Aug-17 08:59 PM
Distance/Time
Traveled:
298nm/0:52
Distance/Time
To Go:
Arrived

Flight Plot

Page will automatically refresh every two minutes.

Flight plan parsing failed; only flown route is shown


Map Options




Map Legend


Flown Route
Filed Route
Departure Airport
Arrival Airport
Navaid (VOR, NDB)
Fix

Horizontal Profiles

Position Reports

Time Latitude Longitude Heading Altitude Ground
Speed
10-Aug-17 20:08 33.938709 -111.885019 91 12395ft 271kts
10-Aug-17 20:09 33.889877 -111.844064 194 15903ft 269kts
10-Aug-17 20:10 33.836402 -111.891487 257 19454ft 274kts
10-Aug-17 20:11 33.808582 -111.991501 253 20787ft 359kts
10-Aug-17 20:12 33.806264 -112.114604 274 24058ft 385kts
10-Aug-17 20:13 33.846219 -112.242542 267 26529ft 421kts
10-Aug-17 20:14 33.835891 -112.383293 256 29656ft 431kts
10-Aug-17 20:15 33.810958 -112.525799 256 32476ft 440kts
10-Aug-17 20:16 33.786415 -112.671117 256 34282ft 450kts
10-Aug-17 20:17 33.761008 -112.818143 251 35252ft 453kts
10-Aug-17 20:18 33.728000 -112.963281 252 36057ft 449kts
10-Aug-17 20:19 33.696124 -113.105116 252 35965ft 436kts
10-Aug-17 20:20 33.664894 -113.244887 252 35966ft 432kts
10-Aug-17 20:21 33.633910 -113.384084 252 35965ft 431kts
10-Aug-17 20:22 33.612664 -113.525106 263 35968ft 435kts
10-Aug-17 20:23 33.638034 -113.668610 279 35969ft 444kts
10-Aug-17 20:24 33.667867 -113.811741 279 35968ft 445kts
10-Aug-17 20:25 33.697996 -113.956108 279 35888ft 446kts
10-Aug-17 20:26 33.716397 -114.101485 270 35888ft 440kts
10-Aug-17 20:27 33.726417 -114.247817 270 35886ft 440kts
10-Aug-17 20:28 33.736646 -114.394254 271 35885ft 441kts
10-Aug-17 20:29 33.746551 -114.533216 271 35884ft 441kts
10-Aug-17 20:30 33.757004 -114.679095 270 35737ft 443kts
10-Aug-17 20:31 33.766707 -114.815921 270 33826ft 400kts
10-Aug-17 20:32 33.775507 -114.945558 271 31912ft 381kts
10-Aug-17 20:33 33.783213 -115.070060 271 30177ft 365kts
10-Aug-17 20:34 33.790287 -115.188001 271 29556ft 346kts
10-Aug-17 20:35 33.797534 -115.308266 271 29034ft 402kts
10-Aug-17 20:36 33.805281 -115.456392 272 29253ft 466kts
10-Aug-17 20:37 33.828979 -115.609296 274 29489ft 467kts
10-Aug-17 20:38 33.838384 -115.760190 271 28020ft 456kts
10-Aug-17 20:39 33.845841 -115.911086 271 26042ft 454kts
10-Aug-17 20:40 33.853113 -116.063314 271 24061ft 459kts
10-Aug-17 20:41 33.860033 -116.212000 271 22321ft 454kts
10-Aug-17 20:42 33.866771 -116.361390 271 20046ft 441kts
10-Aug-17 20:43 33.873154 -116.504903 271 17772ft 414kts
10-Aug-17 20:44 33.878731 -116.633243 271 15872ft 349kts
10-Aug-17 20:45 33.882296 -116.737020 270 13893ft 319kts
10-Aug-17 20:46 33.885502 -116.835519 270 13942ft 278kts
10-Aug-17 20:47 33.865111 -116.919115 247 14183ft 268kts
10-Aug-17 20:48 33.836394 -117.005362 247 12771ft 289kts
10-Aug-17 20:49 33.806984 -117.093561 246 10636ft 285kts
10-Aug-17 20:50 33.778204 -117.180859 255 8631ft 279kts
10-Aug-17 20:51 33.773601 -117.270075 269 8002ft 262kts
10-Aug-17 20:52 33.773439 -117.358892 268 8007ft 273kts
10-Aug-17 20:53 33.779240 -117.451582 272 8006ft 284kts
10-Aug-17 20:54 33.798626 -117.541240 291 7021ft 281kts
10-Aug-17 20:55 33.826720 -117.622592 292 5705ft 251kts
10-Aug-17 20:56 33.847978 -117.684858 291 5073ft 222kts
10-Aug-17 20:57 33.854361 -117.751950 230 4009ft 208kts
10-Aug-17 20:58 33.814551 -117.792893 187 3090ft 194kts
10-Aug-17 20:59 33.765581 -117.809848 210 2064ft 180kts
10-Aug-17 21:00 33.726279 -117.836824 205 1038ft 148kts
10-Aug-17 21:01 33.690867 -117.859194 208 316ft 142kts
10-Aug-17 21:02 33.672190 -117.871857 253 61ft 9kts
10-Aug-17 21:03 33.673262 -117.872702 31 61ft 0kts

Navigation Log

Ident Type
Flight plan parsing failed, navigation log unavailable